Aérodrome :
LOGIN :

S'inscrire | Disclaimer

   EN    FR    IT 

 










Légende :    VFR   VFR Marginal   IFR   IFR Intensif   IFR Très Intensif
Visi : 
Plafond : 
>= 8 km
>= 3000ft
5 à 8 km
1000 à 3000 ft
1500m à 5 km
500 à 1000 ft
800 à 1500m
200 à 500 ft
< 800m
< 200 ft
Symboles :   Orages  Brouillard  Fortes neiges  Fortes précipitations  Vent > 20 kt
SIGMETs :   Divers  Orages  Givrage  Turbulence  Onde Orograph.  Cendres Volcan.






- Altitude de l'aérodrome : 106 ft
- Code IATA : NRN


EDLV - Weeze

METARs EXPIRÉS :
  • 062250Z 23014G24KT 8000 BKN006 09/08 Q1004
  • 062220Z 23013KT 190V250 9000 BKN010 08/07 Q1003

TAF TAF EDLV
Valide du 06 à 18h jusqu'au 07 à 18h UTC


061700Z 0618/0718 21015G25KT 9999 BKN007
PROB30
TEMPO 0618/0621 4500 BR SCT007 BKN011
TEMPO 0621/0702 4000 SHRA SCT005 BKN015TCU
BECMG 0702/0705 25012KT
TEMPO 0702/0711 SCT008 BKN015
BECMG 0711/0714 SCT015 BKN030



MET'MAP, la Météo Aéronautique d'un coup d'oeil ! - Copyright ORBIFLY Décembre 2007 - Disclaimer

ORBIFLY MET'MAP TEAM :

Programmation & Développement : Alexandra Zaïnal
Sur une idée originale de : Baudouin d'Aumeries
Assistance à la programmation : Marc-Olivier Méhu
Soutien technique & logistique : Manuel Goepfert

Contact : metmap@orbifly.com




SOURCES & CREDITS :

   NOAA